Terminal Aerodrome Forecast
Issued by NWS

Home | Current Version | Previous Version | Text Only | Print | Product List | Glossary On
Versions: 1 2 3 4 5 6 7 8 9 10 11 12 13 14 15 16 17
000
FTUS43 KGRB 221125
TAFRHI
TAF
KRHI 221125Z 2212/2312 VRB03KT P6SM SCT007 OVC012
      TEMPO 2212/2214 5SM BR BKN007
     FM221500 20003KT P6SM BKN015
     FM221900 23005KT P6SM SCT025 BKN050
      TEMPO 2220/2224 5SM -TSRA BKN025CB
     FM230000 26005KT P6SM VCTS BKN025CB
     FM230600 27004KT 5SM BR VCSH SCT003 BKN030
      TEMPO 2309/2312 2SM BR BKN003=

USA.gov is the U.S. government's official web portal to all federal, state and local government web resources and services.